Philip, South Dakota
Current Conditions -  °F | °C
As of 9:55 PM on Friday 19 Dec 2014 (Local Time) from KPHP Reporting Station
Clear Clear  
Wind Chill: 16°   Ceiling: Unl
Heat Index: 22°   Visibility: 10mi
Dew Point: 18°   Wind: 5mph
Humidity: 85%   Direction: 280°W
Pressure: 29.95"   Gusts: NA
Location:  44.04°N, 101.67°W
Report Text: KPHP 200455Z AUTO 28004KT 10SM CLR M06/M08 A2995 RMK AO2 SLP161 T10561078
Loading
Personal Weather Stations






























Interactive Weather Map New forecast layout! Learn more

10-Day Weather Forecast

Advertisements
Track Severe Weather on mobile